KBNW/BNW METAR and TAF weather

Enter ICAO airport designator
Station Type Date Time Source
KBNW METAR 2020/10/20 17:15 UTC NOAA

KBNW 201715Z AUTO 12015KT 10SM OVC017 03/03 A3010 RMK AO2


Station Type Date Time Source
KBNW Decoded METAR 2020/10/20 17:15 UTC NOAA

Boone Municipal, IA, United States (KBNW) 42-03N 093-51W
Oct 20, 2020 - 01:15 PM EDT / 2020.10.20 1715 UTC
Wind: from the ESE (120 degrees) at 17 MPH (15 KT):0
Visibility: 10 mile(s):0
Sky conditions: overcast
Temperature: 37 F (3 C)
Dew Point: 37 F (3 C)
Relative Humidity: 100%
Pressure (altimeter): 30.1 in. Hg (1019 hPa)
ob: KBNW 201715Z AUTO 12015KT 10SM OVC017 03/03 A3010 RMK AO2
cycle: 17

Station Type Date Time Source
KBNW TAF UTC NOAA

Error!

Example: see airport list